createdAt,value
2023-01-30T00:00:21.807Z,70.40
2023-01-30T00:02:49.195Z,73.90
2023-01-30T00:05:16.629Z,82.63
2023-01-30T00:07:44.032Z,69.83
2023-01-30T00:10:11.626Z,67.40
2023-01-30T00:12:38.987Z,72.50
2023-01-30T00:15:06.620Z,80.77
2023-01-30T00:17:34.093Z,65.23
2023-01-30T00:20:01.484Z,70.87
2023-01-30T00:22:28.884Z,79.40
2023-01-30T00:24:56.260Z,86.27
2023-01-30T00:27:23.667Z,53.40
2023-01-30T00:30:02.247Z,57.80
2023-01-30T00:32:31.370Z,86.67
2023-01-30T00:34:58.733Z,83.83
2023-01-30T00:37:26.139Z,80.73
2023-01-30T00:39:53.548Z,68.10
2023-01-30T00:42:39.446Z,54.13
2023-01-30T00:45:25.868Z,91.13
2023-01-30T00:47:53.266Z,87.50
2023-01-30T00:50:20.626Z,89.30
2023-01-30T00:52:48.130Z,80.73
2023-01-30T00:55:16.187Z,81.77
2023-01-30T00:57:45.784Z,60.40
2023-01-30T01:00:13.496Z,58.70
2023-01-30T01:02:41.215Z,52.47
2023-01-30T01:05:09.407Z,75.90
2023-01-30T01:07:36.742Z,56.40
2023-01-30T01:10:04.214Z,64.30
2023-01-30T01:12:31.671Z,68.93
2023-01-30T01:15:00.469Z,80.40
2023-01-30T01:17:28.804Z,66.83
2023-01-30T01:19:56.305Z,62.10
2023-01-30T01:22:23.862Z,58.97
2023-01-30T01:24:51.418Z,81.00
2023-01-30T01:27:19.522Z,94.50
2023-01-30T01:29:46.843Z,59.13
2023-01-30T01:32:14.273Z,85.37
2023-01-30T01:34:41.953Z,86.90
2023-01-30T01:37:09.342Z,58.83
2023-01-30T01:39:55.228Z,97.70
2023-01-30T01:42:23.308Z,88.90
2023-01-30T01:45:09.266Z,68.33
2023-01-30T01:47:36.864Z,72.07
2023-01-30T01:50:05.155Z,89.93
2023-01-30T01:52:32.707Z,97.33
2023-01-30T01:55:01.831Z,65.47
2023-01-30T01:57:34.390Z,79.10
2023-01-30T02:00:12.048Z,105.10
2023-01-30T02:02:43.738Z,83.40
2023-01-30T02:05:12.766Z,83.73
2023-01-30T02:07:48.472Z,92.80
2023-01-30T02:10:21.578Z,93.17
2023-01-30T02:12:49.610Z,87.43
2023-01-30T02:15:18.235Z,63.27
2023-01-30T02:17:46.017Z,100.63
2023-01-30T02:20:25.877Z,86.40
2023-01-30T02:23:05.481Z,84.63
2023-01-30T02:25:43.031Z,90.40
2023-01-30T02:28:29.320Z,83.83
2023-01-30T02:31:02.564Z,86.27
2023-01-30T02:33:34.121Z,78.67
2023-01-30T02:36:21.080Z,80.87
2023-01-30T02:38:53.320Z,82.60
2023-01-30T02:41:36.140Z,82.10
2023-01-30T02:44:03.909Z,88.47
2023-01-30T02:46:34.548Z,109.77
2023-01-30T02:49:06.531Z,81.63
2023-01-30T02:51:37.915Z,68.27
2023-01-30T02:54:08.747Z,68.30
2023-01-30T02:56:48.457Z,107.17
2023-01-30T02:59:16.722Z,95.60
2023-01-30T03:02:05.331Z,105.43
2023-01-30T03:04:49.274Z,55.07
2023-01-30T03:07:48.846Z,82.03
2023-01-30T03:10:26.275Z,63.10
2023-01-30T03:13:12.297Z,87.47
2023-01-30T03:15:42.994Z,87.43
2023-01-30T03:18:11.284Z,84.90
2023-01-30T03:20:39.790Z,50.47
2023-01-30T03:23:07.804Z,79.37
2023-01-30T03:25:37.031Z,101.67
2023-01-30T03:28:06.231Z,77.20
2023-01-30T03:30:34.064Z,100.73
2023-01-30T03:33:08.203Z,89.80
2023-01-30T03:35:38.280Z,52.47
2023-01-30T03:38:06.090Z,84.77
2023-01-30T03:40:34.090Z,88.53
2023-01-30T03:43:01.561Z,80.20
2023-01-30T03:45:28.996Z,66.97
2023-01-30T03:47:56.361Z,57.43
2023-01-30T03:50:23.686Z,59.93
2023-01-30T03:52:51.083Z,54.70
2023-01-30T03:55:21.057Z,67.00
2023-01-30T03:57:49.015Z,69.50
2023-01-30T04:00:18.730Z,52.50
2023-01-30T04:02:49.863Z,46.13
2023-01-30T04:05:19.042Z,40.37
2023-01-30T04:07:52.488Z,48.43
2023-01-30T04:10:20.068Z,41.93
2023-01-30T04:12:47.934Z,43.87
2023-01-30T04:15:16.719Z,44.20
2023-01-30T04:17:56.245Z,41.97
2023-01-30T04:20:26.546Z,34.87
2023-01-30T04:22:56.479Z,35.50
2023-01-30T04:25:25.858Z,52.57
2023-01-30T04:27:53.611Z,37.07
2023-01-30T04:30:25.413Z,47.23
2023-01-30T04:32:59.624Z,54.47
2023-01-30T04:35:27.171Z,39.60
2023-01-30T04:37:54.557Z,52.37
2023-01-30T04:40:21.947Z,55.50
2023-01-30T04:42:49.759Z,49.50
2023-01-30T04:45:37.078Z,39.87
2023-01-30T04:48:04.598Z,48.93
2023-01-30T04:50:32.704Z,49.43
2023-01-30T04:53:00.315Z,48.63
2023-01-30T04:55:27.703Z,55.60
2023-01-30T04:57:55.150Z,47.87
2023-01-30T05:00:22.769Z,51.67
2023-01-30T05:02:56.031Z,39.93
2023-01-30T05:05:27.068Z,44.63
2023-01-30T05:07:55.010Z,53.17
2023-01-30T05:10:22.817Z,51.37
2023-01-30T05:12:50.474Z,49.30
2023-01-30T05:15:18.363Z,49.80
2023-01-30T05:17:46.104Z,44.17
2023-01-30T05:20:14.337Z,34.70
2023-01-30T05:22:41.660Z,38.97
2023-01-30T05:25:09.343Z,36.43
2023-01-30T05:27:36.809Z,41.83
2023-01-30T05:30:04.715Z,36.40
2023-01-30T05:32:32.176Z,40.17
2023-01-30T05:34:59.704Z,35.33
2023-01-30T05:37:27.194Z,34.13
2023-01-30T05:39:54.546Z,31.43
2023-01-30T05:42:21.873Z,25.17
2023-01-30T05:44:49.217Z,22.10
2023-01-30T05:47:16.642Z,29.63
2023-01-30T05:49:43.967Z,32.83
2023-01-30T05:52:11.323Z,26.10
2023-01-30T05:54:42.812Z,36.00
2023-01-30T05:57:11.106Z,20.70
2023-01-30T05:59:42.269Z,29.17
2023-01-30T06:02:11.241Z,25.23
2023-01-30T06:04:39.500Z,28.80
2023-01-30T06:07:07.005Z,24.87
2023-01-30T06:09:34.341Z,25.77
2023-01-30T06:12:01.660Z,21.40
2023-01-30T06:14:29.643Z,19.53
2023-01-30T06:16:57.047Z,15.90
2023-01-30T06:19:24.456Z,13.77
2023-01-30T06:21:51.862Z,12.60
2023-01-30T06:24:19.308Z,15.37
2023-01-30T06:26:46.864Z,9.77
2023-01-30T06:29:14.443Z,10.93
2023-01-30T06:31:41.955Z,10.80
2023-01-30T06:34:09.350Z,5.90
2023-01-30T06:36:36.811Z,14.67
2023-01-30T06:39:04.559Z,12.63
2023-01-30T06:41:31.937Z,13.47
2023-01-30T06:43:59.310Z,16.47
2023-01-30T06:46:26.708Z,8.93
2023-01-30T06:48:54.145Z,7.83
2023-01-30T06:51:21.494Z,8.90
2023-01-30T06:53:49.560Z,14.53
2023-01-30T06:56:18.105Z,13.17
2023-01-30T06:58:45.706Z,13.63
2023-01-30T07:01:14.857Z,14.70
2023-01-30T07:03:42.301Z,13.47
2023-01-30T07:06:09.658Z,9.53
2023-01-30T07:08:37.116Z,6.20
2023-01-30T07:11:05.455Z,32.03
2023-01-30T07:13:32.924Z,8.27
2023-01-30T07:16:00.311Z,23.43
2023-01-30T07:18:27.722Z,28.93
2023-01-30T07:20:55.104Z,16.63
2023-01-30T07:23:22.454Z,18.23
2023-01-30T07:25:49.849Z,13.53
2023-01-30T07:28:17.215Z,13.43
2023-01-30T07:30:44.733Z,19.53
2023-01-30T07:33:12.202Z,21.13
2023-01-30T07:35:40.034Z,22.20
2023-01-30T07:38:07.368Z,17.10
2023-01-30T07:40:34.756Z,14.70
2023-01-30T07:43:08.975Z,22.77
2023-01-30T07:45:37.804Z,24.27
2023-01-30T07:48:05.187Z,22.87
2023-01-30T07:50:32.751Z,13.03
2023-01-30T07:53:00.109Z,14.87
2023-01-30T07:55:27.826Z,19.53
2023-01-30T07:57:55.277Z,24.67
2023-01-30T08:00:22.828Z,11.20
2023-01-30T08:02:50.222Z,10.53
2023-01-30T08:05:17.795Z,22.10
2023-01-30T08:07:47.414Z,15.40
2023-01-30T08:10:15.321Z,21.03
2023-01-30T08:12:42.864Z,11.10
2023-01-30T08:15:10.789Z,15.27
2023-01-30T08:17:38.425Z,19.83
2023-01-30T08:20:06.124Z,8.00
2023-01-30T08:22:33.529Z,13.50
2023-01-30T08:25:01.093Z,14.90
2023-01-30T08:27:28.421Z,22.00
2023-01-30T08:29:57.250Z,8.53
2023-01-30T08:32:24.600Z,19.80
2023-01-30T08:34:51.971Z,24.87
2023-01-30T08:37:19.367Z,20.80
2023-01-30T08:39:46.722Z,21.03
2023-01-30T08:42:14.034Z,22.20
2023-01-30T08:44:41.428Z,36.23
2023-01-30T08:47:08.854Z,18.50
2023-01-30T08:49:36.233Z,13.13
2023-01-30T08:52:03.615Z,18.73
2023-01-30T08:54:33.248Z,15.17
2023-01-30T08:57:00.716Z,18.97
2023-01-30T08:59:28.125Z,19.30
2023-01-30T09:01:55.505Z,15.27
2023-01-30T09:04:24.976Z,9.60
2023-01-30T09:06:52.415Z,17.10
2023-01-30T09:09:20.034Z,12.90
2023-01-30T09:11:50.456Z,14.33
2023-01-30T09:14:21.016Z,20.77
2023-01-30T09:16:55.300Z,11.07
2023-01-30T09:19:23.723Z,17.77
2023-01-30T09:21:51.819Z,22.17
2023-01-30T09:24:19.407Z,15.90
2023-01-30T09:26:46.829Z,32.47
2023-01-30T09:29:14.729Z,16.87
2023-01-30T09:31:42.258Z,17.03
2023-01-30T09:34:09.776Z,12.40
2023-01-30T09:36:37.196Z,24.30
2023-01-30T09:39:04.619Z,25.07
2023-01-30T09:41:31.953Z,13.10
2023-01-30T09:43:59.630Z,32.27
2023-01-30T09:46:48.564Z,13.77
2023-01-30T09:49:24.456Z,26.03
2023-01-30T09:52:14.297Z,15.73
2023-01-30T09:54:43.389Z,25.87
2023-01-30T09:57:20.573Z,23.67
2023-01-30T09:59:47.994Z,13.27
2023-01-30T10:02:33.898Z,8.23
2023-01-30T10:05:03.420Z,31.67
2023-01-30T10:07:49.627Z,27.63
2023-01-30T10:10:20.384Z,15.77
2023-01-30T10:12:50.704Z,34.23
2023-01-30T10:15:20.232Z,16.17
2023-01-30T10:17:56.801Z,15.53
2023-01-30T10:20:33.867Z,35.50
2023-01-30T10:23:09.979Z,27.87
2023-01-30T10:25:46.335Z,17.40
2023-01-30T10:28:31.465Z,20.10
2023-01-30T10:31:26.412Z,13.90
2023-01-30T10:33:57.837Z,26.70
2023-01-30T10:36:28.536Z,13.17
2023-01-30T10:38:58.373Z,12.27
2023-01-30T10:41:33.603Z,33.00
2023-01-30T10:44:04.391Z,10.27
2023-01-30T10:46:36.328Z,12.70
2023-01-30T10:49:06.530Z,25.13
2023-01-30T10:51:34.842Z,16.90
2023-01-30T10:54:19.871Z,24.97
2023-01-30T10:56:53.654Z,19.17
2023-01-30T10:59:52.505Z,13.80
2023-01-30T11:02:23.022Z,28.30
2023-01-30T11:05:01.188Z,25.77
2023-01-30T11:07:30.713Z,11.30
2023-01-30T11:09:58.987Z,23.37
2023-01-30T11:12:26.454Z,17.37
2023-01-30T11:14:56.377Z,20.90
2023-01-30T11:17:30.459Z,28.77
2023-01-30T11:19:58.449Z,15.53
2023-01-30T11:22:27.103Z,13.03
2023-01-30T11:25:01.726Z,20.60
2023-01-30T11:27:30.035Z,24.50
2023-01-30T11:30:05.847Z,15.73
2023-01-30T11:32:33.220Z,14.93
2023-01-30T11:35:09.715Z,21.43
2023-01-30T11:37:38.226Z,28.27
2023-01-30T11:40:31.061Z,33.77
2023-01-30T11:43:05.814Z,23.83
2023-01-30T11:45:37.949Z,23.17
2023-01-30T11:48:07.905Z,21.90
2023-01-30T11:50:45.009Z,20.73
2023-01-30T11:53:22.111Z,26.97
2023-01-30T11:56:01.866Z,17.40
2023-01-30T11:58:32.068Z,19.47
2023-01-30T12:00:59.883Z,28.60
2023-01-30T12:03:29.435Z,35.50
2023-01-30T12:05:58.210Z,28.63
2023-01-30T12:08:41.857Z,17.17
2023-01-30T12:11:26.800Z,19.90
2023-01-30T12:14:05.901Z,25.07
2023-01-30T12:16:36.367Z,41.87
2023-01-30T12:19:03.740Z,25.10
2023-01-30T12:21:44.882Z,17.63
2023-01-30T12:24:17.961Z,36.30
2023-01-30T12:26:48.323Z,33.33
2023-01-30T12:29:41.924Z,19.43
2023-01-30T12:32:14.664Z,15.07
2023-01-30T12:34:45.596Z,26.27
2023-01-30T12:37:26.477Z,30.63
2023-01-30T12:40:04.077Z,9.57
2023-01-30T12:42:31.438Z,10.70
2023-01-30T12:45:14.225Z,7.63
2023-01-30T12:47:41.551Z,9.73
2023-01-30T12:50:11.969Z,14.47
2023-01-30T12:52:53.981Z,18.43
2023-01-30T12:55:21.525Z,22.73
2023-01-30T12:58:00.103Z,8.10
2023-01-30T13:00:27.496Z,10.70
2023-01-30T13:02:57.944Z,8.40
2023-01-30T13:05:28.431Z,5.33
2023-01-30T13:08:03.825Z,16.47
2023-01-30T13:10:45.811Z,8.37
2023-01-30T13:13:24.686Z,6.03
2023-01-30T13:16:11.112Z,15.00
2023-01-30T13:18:45.392Z,13.67
2023-01-30T13:21:23.905Z,14.10
2023-01-30T13:24:04.787Z,14.77
2023-01-30T13:26:37.230Z,24.10
2023-01-30T13:29:15.448Z,8.07
2023-01-30T13:31:57.639Z,15.93
2023-01-30T13:34:33.351Z,14.93
2023-01-30T13:37:07.246Z,8.33
2023-01-30T13:39:41.413Z,12.20
2023-01-30T13:42:19.117Z,24.40
2023-01-30T13:44:46.890Z,27.00
2023-01-30T13:47:28.512Z,19.20
2023-01-30T13:50:13.257Z,11.03
2023-01-30T13:52:44.649Z,19.03
2023-01-30T13:55:15.128Z,9.33
2023-01-30T13:57:49.159Z,16.57
2023-01-30T14:00:23.393Z,19.93
2023-01-30T14:03:09.149Z,10.83
2023-01-30T14:06:02.857Z,12.53
2023-01-30T14:08:39.145Z,12.87
2023-01-30T14:11:28.963Z,17.57
2023-01-30T14:14:00.058Z,20.47
2023-01-30T14:16:40.204Z,9.23
2023-01-30T14:19:21.182Z,14.43
2023-01-30T14:21:56.375Z,11.57
2023-01-30T14:24:25.046Z,8.70
2023-01-30T14:27:00.546Z,15.60
2023-01-30T14:29:43.106Z,12.30
2023-01-30T14:32:14.178Z,15.60
2023-01-30T14:34:41.676Z,16.97
2023-01-30T14:37:27.997Z,19.83
2023-01-30T14:39:56.532Z,7.57
2023-01-30T14:42:24.578Z,8.47
2023-01-30T14:45:02.661Z,17.67
2023-01-30T14:47:39.029Z,14.03
2023-01-30T14:50:20.626Z,16.00
2023-01-30T14:52:50.218Z,23.87
2023-01-30T14:55:20.491Z,9.90
2023-01-30T14:57:54.681Z,10.80
2023-01-30T15:00:25.264Z,14.33
2023-01-30T15:02:55.380Z,21.17
2023-01-30T15:05:28.852Z,14.40
2023-01-30T15:08:04.784Z,9.47
2023-01-30T15:10:38.199Z,12.70
2023-01-30T15:13:24.517Z,14.93
2023-01-30T15:15:57.896Z,18.33
2023-01-30T15:18:43.977Z,47.53
2023-01-30T15:21:20.504Z,20.90
2023-01-30T15:23:48.197Z,14.20
2023-01-30T15:26:28.918Z,16.83
2023-01-30T15:29:00.389Z,16.53
2023-01-30T15:31:28.537Z,26.37
2023-01-30T15:33:59.355Z,18.57
2023-01-30T15:36:28.729Z,14.57
2023-01-30T15:38:58.873Z,23.90
2023-01-30T15:41:26.752Z,17.53
2023-01-30T15:44:13.217Z,11.30
2023-01-30T15:46:46.854Z,11.57
2023-01-30T15:49:34.228Z,17.67
2023-01-30T15:52:03.238Z,17.33
2023-01-30T15:54:30.627Z,13.13
2023-01-30T15:56:59.338Z,13.23
2023-01-30T15:59:34.490Z,14.03
2023-01-30T16:02:03.575Z,22.00
2023-01-30T16:04:38.366Z,12.10
2023-01-30T16:07:37.131Z,20.57
2023-01-30T16:13:08.277Z,17.40
2023-01-30T16:15:47.886Z,22.83
2023-01-30T16:18:16.775Z,20.80
2023-01-30T16:21:00.091Z,24.40
2023-01-30T16:23:39.104Z,19.63
2023-01-30T16:26:15.425Z,13.17
2023-01-30T16:28:54.122Z,19.80
2023-01-30T16:31:25.888Z,23.07
2023-01-30T16:33:58.766Z,31.07
2023-01-30T16:36:39.433Z,23.77
2023-01-30T16:39:28.521Z,32.20
2023-01-30T16:41:58.653Z,27.87
2023-01-30T16:44:32.963Z,27.93
2023-01-30T16:47:31.476Z,12.90
2023-01-30T16:50:01.374Z,9.87
2023-01-30T16:52:32.292Z,8.30
2023-01-30T16:55:01.606Z,25.40
2023-01-30T16:57:35.831Z,23.53
2023-01-30T17:00:24.055Z,5.20
2023-01-30T17:02:55.485Z,11.97
2023-01-30T17:05:24.609Z,14.93
2023-01-30T17:07:52.546Z,10.13
2023-01-30T17:10:29.531Z,3.77
2023-01-30T17:13:02.537Z,12.80
2023-01-30T17:15:31.549Z,6.70
2023-01-30T17:17:59.339Z,26.60
2023-01-30T17:20:30.666Z,24.77
2023-01-30T17:23:04.489Z,18.77
2023-01-30T17:25:35.753Z,14.77
2023-01-30T17:28:03.273Z,41.73
2023-01-30T17:30:33.082Z,29.77
2023-01-30T17:33:05.226Z,27.47
2023-01-30T17:35:33.122Z,28.07
2023-01-30T17:38:05.700Z,19.60
2023-01-30T17:40:59.517Z,31.87
2023-01-30T17:43:27.958Z,25.80
2023-01-30T17:45:57.416Z,39.70
2023-01-30T17:48:25.299Z,34.57
2023-01-30T17:50:52.840Z,43.57
2023-01-30T17:53:23.902Z,37.57
2023-01-30T17:55:56.366Z,40.90
2023-01-30T17:58:36.196Z,27.27
2023-01-30T18:01:03.975Z,45.47
2023-01-30T18:03:31.413Z,27.63
2023-01-30T18:05:59.350Z,27.03
2023-01-30T18:08:27.199Z,26.43
2023-01-30T18:10:54.740Z,23.93
2023-01-30T18:13:22.048Z,37.33
2023-01-30T18:15:49.668Z,41.53
2023-01-30T18:18:18.012Z,38.27
2023-01-30T18:20:47.426Z,38.77
2023-01-30T18:23:16.391Z,20.77
2023-01-30T18:25:43.712Z,32.43
2023-01-30T18:28:11.449Z,26.20
2023-01-30T18:30:38.785Z,25.57
2023-01-30T18:33:06.569Z,23.93
2023-01-30T18:35:38.405Z,26.10
2023-01-30T18:38:06.435Z,45.93
2023-01-30T18:40:41.291Z,32.10
2023-01-30T18:43:12.093Z,33.03
2023-01-30T18:45:47.335Z,28.50
2023-01-30T18:48:28.131Z,27.27
2023-01-30T18:50:56.006Z,28.60
2023-01-30T18:53:26.739Z,45.53
2023-01-30T18:55:54.055Z,29.00
2023-01-30T18:58:38.895Z,19.27
2023-01-30T19:01:25.858Z,48.30
2023-01-30T19:03:57.351Z,29.60
2023-01-30T19:06:24.868Z,37.17
2023-01-30T19:08:55.469Z,35.70
2023-01-30T19:11:42.519Z,32.07
2023-01-30T19:14:17.727Z,23.23
2023-01-30T19:16:45.099Z,23.30
2023-01-30T19:19:12.839Z,36.63
2023-01-30T19:21:40.158Z,26.83
2023-01-30T19:24:08.786Z,32.43
2023-01-30T19:26:36.154Z,37.67
2023-01-30T19:29:03.595Z,32.33
2023-01-30T19:31:31.255Z,28.97
2023-01-30T19:34:04.641Z,44.87
2023-01-30T19:36:33.506Z,15.67
2023-01-30T19:39:03.504Z,38.30
2023-01-30T19:41:32.584Z,27.53
2023-01-30T19:44:02.028Z,27.07
2023-01-30T19:46:33.513Z,30.17
2023-01-30T19:49:04.568Z,21.97
2023-01-30T19:51:33.212Z,27.67
2023-01-30T19:54:04.142Z,29.17
2023-01-30T19:56:32.385Z,22.83
2023-01-30T19:59:00.683Z,40.90
2023-01-30T20:01:36.165Z,40.27
2023-01-30T20:04:09.472Z,39.90
2023-01-30T20:06:37.862Z,33.27
2023-01-30T20:09:06.571Z,18.63
2023-01-30T20:11:36.904Z,43.30
2023-01-30T20:14:13.787Z,16.17
2023-01-30T20:16:41.508Z,25.00
2023-01-30T20:19:18.427Z,35.30
2023-01-30T20:21:53.153Z,25.50
2023-01-30T20:24:20.488Z,30.80
2023-01-30T20:26:48.607Z,9.20
2023-01-30T20:29:17.512Z,28.20
2023-01-30T20:31:48.039Z,19.53
2023-01-30T20:34:18.113Z,30.30
2023-01-30T20:36:46.047Z,30.37
2023-01-30T20:39:16.703Z,15.63
2023-01-30T20:41:47.271Z,19.97
2023-01-30T20:44:19.117Z,37.63
2023-01-30T20:47:12.826Z,39.03
2023-01-30T20:49:40.160Z,27.43
2023-01-30T20:52:07.450Z,37.33
2023-01-30T20:54:35.791Z,27.27
2023-01-30T20:57:10.358Z,32.60
2023-01-30T20:59:49.793Z,45.03
2023-01-30T21:02:20.986Z,34.73
2023-01-30T21:04:54.289Z,28.00
2023-01-30T21:07:25.660Z,37.17
2023-01-30T21:09:53.051Z,24.83
2023-01-30T21:12:27.265Z,31.57
2023-01-30T21:14:55.601Z,30.73
2023-01-30T21:17:23.319Z,31.03
2023-01-30T21:19:51.130Z,34.50
2023-01-30T21:22:18.710Z,42.77
2023-01-30T21:24:46.496Z,40.13
2023-01-30T21:27:17.354Z,21.23
2023-01-30T21:29:44.780Z,23.20
2023-01-30T21:32:14.142Z,37.13
2023-01-30T21:34:51.597Z,29.80
2023-01-30T21:37:39.041Z,45.20
2023-01-30T21:40:25.943Z,21.20
2023-01-30T21:43:13.373Z,26.17
2023-01-30T21:45:40.981Z,29.40
2023-01-30T21:48:11.934Z,26.37
2023-01-30T21:50:41.538Z,36.67
2023-01-30T21:53:12.329Z,42.43
2023-01-30T21:55:50.529Z,34.67
2023-01-30T21:58:18.053Z,29.30
2023-01-30T22:00:45.813Z,41.43
2023-01-30T22:03:16.940Z,25.07
2023-01-30T22:05:45.746Z,33.65
2023-01-30T22:08:13.129Z,12.17
2023-01-30T22:10:40.641Z,34.73
2023-01-30T22:13:13.387Z,25.17
2023-01-30T22:15:41.039Z,41.90
2023-01-30T22:18:08.393Z,30.00
2023-01-30T22:20:36.168Z,47.03
2023-01-30T22:23:03.533Z,19.13
2023-01-30T22:25:31.209Z,33.93
2023-01-30T22:27:58.726Z,37.17
2023-01-30T22:30:26.090Z,41.40
2023-01-30T22:32:55.462Z,26.63
2023-01-30T22:35:22.823Z,27.53
2023-01-30T22:37:50.686Z,33.63
2023-01-30T22:40:28.699Z,29.20
2023-01-30T22:43:00.441Z,22.67
2023-01-30T22:45:28.920Z,41.77
2023-01-30T22:47:56.191Z,35.53
2023-01-30T22:50:23.513Z,37.63
2023-01-30T22:52:51.819Z,25.63
2023-01-30T22:55:21.198Z,19.43
2023-01-30T22:58:01.612Z,28.60
2023-01-30T23:00:30.880Z,38.40
2023-01-30T23:02:58.743Z,30.40
2023-01-30T23:05:31.632Z,40.03
2023-01-30T23:08:07.791Z,29.67
2023-01-30T23:10:35.545Z,49.70
2023-01-30T23:13:09.038Z,28.83
2023-01-30T23:15:39.089Z,17.83
2023-01-30T23:18:25.412Z,25.67
2023-01-30T23:20:52.737Z,39.77
2023-01-30T23:23:21.163Z,38.43
2023-01-30T23:25:50.058Z,42.00
2023-01-30T23:28:17.863Z,45.57
2023-01-30T23:30:45.492Z,36.40
2023-01-30T23:33:12.844Z,31.10
2023-01-30T23:35:40.255Z,29.63
2023-01-30T23:38:16.894Z,34.80
2023-01-30T23:40:49.221Z,25.97
2023-01-30T23:43:20.496Z,34.87
2023-01-30T23:45:56.349Z,42.73
2023-01-30T23:48:33.312Z,25.13
2023-01-30T23:51:03.876Z,38.80
2023-01-30T23:53:36.209Z,31.50
2023-01-30T23:56:08.003Z,24.33
2023-01-30T23:58:38.874Z,24.07
